»·PEaware :: N3891R KLGB-KCRQ

N3891R :: KLGB-KCRQ

FLIGHT INFORMATION

Flight Status: Arrived
Operator: Privately registered:
United States
More flights under this callsign
Pilot: Markus B. (22479)
Aircraft: BEECH AIRCRAFT BARON
(BE58)
More flights by this aircraft type
Origin: KLGB Long Beach
United States
Destination: KCRQ McClellan-Palomar
United States
More flights between these airports :: More routes between these airports
Route: SLI V64 V363 DANAH V23 OCN
File this flight plan on PilotEdge
Remarks: TEC route CSTP34
Altitude:
(Current/Filed)
5,000ft
Speed:
(Current/Filed)
170kts
Departed: 08-Feb-20 03:46 PM
Arrived: 08-Feb-20 04:30 PM
Distance/Time
Traveled:
60nm/0:44
Distance/Time
To Go:
Arrived

Flight Plot

Page will automatically refresh every two minutes.


Map Options




Map Legend


Flown Route
Filed Route
Departure Airport
Arrival Airport
Navaid (VOR, NDB)
Fix

Horizontal Profiles

Position Reports

Time Latitude Longitude Heading Altitude Ground
Speed
08-Feb-20 15:20 33.812186 -118.151102 52 39ft 0kts
08-Feb-20 15:21 33.812186 -118.151102 52 39ft 0kts
08-Feb-20 15:22 33.812186 -118.151102 52 39ft 0kts
08-Feb-20 15:23 33.812186 -118.151102 52 39ft 0kts
08-Feb-20 15:24 33.812186 -118.151102 52 39ft 0kts
08-Feb-20 15:25 33.812186 -118.151102 52 39ft 0kts
08-Feb-20 15:26 33.812186 -118.151102 52 39ft 0kts
08-Feb-20 15:27 33.812186 -118.151102 52 39ft 0kts
08-Feb-20 15:28 33.812186 -118.151102 52 39ft 0kts
08-Feb-20 15:29 33.812186 -118.151102 52 39ft 0kts
08-Feb-20 15:30 33.812186 -118.151102 52 39ft 0kts
08-Feb-20 15:31 33.812186 -118.151102 52 39ft 0kts
08-Feb-20 15:32 33.812186 -118.151102 52 39ft 0kts
08-Feb-20 15:33 33.812186 -118.151102 52 39ft 0kts
08-Feb-20 15:34 33.812186 -118.151102 52 39ft 0kts
08-Feb-20 15:35 33.812186 -118.151102 52 39ft 0kts
08-Feb-20 15:36 33.812186 -118.151102 52 39ft 0kts
08-Feb-20 15:37 33.812186 -118.151102 52 39ft 0kts
08-Feb-20 15:38 33.812186 -118.151102 52 39ft 0kts
08-Feb-20 15:39 33.812186 -118.151102 52 39ft 0kts
08-Feb-20 15:40 33.812186 -118.151102 52 39ft 0kts
08-Feb-20 15:41 33.813119 -118.148678 94 37ft 1kts
08-Feb-20 15:42 33.809260 -118.142678 135 29ft 31kts
08-Feb-20 15:43 33.806434 -118.139059 97 27ft 0kts
08-Feb-20 15:44 33.806444 -118.138905 73 27ft 8kts
08-Feb-20 15:45 33.819020 -118.153766 297 683ft 98kts
08-Feb-20 15:46 33.800042 -118.178472 212 1974ft 105kts
08-Feb-20 15:47 33.775782 -118.197317 213 3218ft 109kts
08-Feb-20 15:48 33.743090 -118.225528 213 2783ft 161kts
08-Feb-20 15:49 33.706990 -118.253542 212 2841ft 154kts
08-Feb-20 15:50 33.673128 -118.253443 100 3043ft 142kts
08-Feb-20 15:51 33.671594 -118.212210 91 4260ft 113kts
08-Feb-20 15:52 33.670601 -118.172502 91 4921ft 136kts
08-Feb-20 15:53 33.669379 -118.123178 91 4873ft 153kts
08-Feb-20 15:55 33.668130 -118.072081 91 4854ft 152kts
08-Feb-20 15:56 33.666892 -118.021068 91 4857ft 152kts
08-Feb-20 15:57 33.665651 -117.969603 91 4857ft 152kts
08-Feb-20 15:58 33.664416 -117.918028 91 4857ft 152kts
08-Feb-20 15:59 33.663187 -117.866347 91 4857ft 152kts
08-Feb-20 16:00 33.661982 -117.815291 91 4857ft 152kts
08-Feb-20 16:01 33.643499 -117.774429 144 4849ft 152kts
08-Feb-20 16:02 33.608946 -117.744881 144 4857ft 152kts
08-Feb-20 16:03 33.574656 -117.715011 143 4857ft 152kts
08-Feb-20 16:04 33.540854 -117.684980 143 4941ft 147kts
08-Feb-20 16:05 33.507468 -117.655055 143 4971ft 151kts
08-Feb-20 16:06 33.471200 -117.622590 143 4981ft 171kts
08-Feb-20 16:07 33.432149 -117.587790 143 5079ft 179kts
08-Feb-20 16:08 33.391233 -117.551377 143 4991ft 182kts
08-Feb-20 16:09 33.350641 -117.515292 143 4986ft 181kts
08-Feb-20 16:10 33.310016 -117.479224 143 4985ft 182kts
08-Feb-20 16:10 33.276190 -117.449171 143 4985ft 182kts
08-Feb-20 16:12 33.235713 -117.401276 93 4975ft 179kts
08-Feb-20 16:13 33.234522 -117.341111 91 4993ft 181kts
08-Feb-20 16:13 33.233761 -117.290724 91 4982ft 182kts
08-Feb-20 16:15 33.232710 -117.220279 91 4983ft 182kts
08-Feb-20 16:16 33.231822 -117.159840 91 4983ft 182kts
08-Feb-20 16:16 33.231089 -117.109366 91 4983ft 182kts
08-Feb-20 16:17 33.230299 -117.053939 90 4915ft 151kts
08-Feb-20 16:19 33.229514 -116.998993 90 4954ft 134kts
08-Feb-20 16:19 33.227752 -116.962772 119 4941ft 132kts
08-Feb-20 16:20 33.196662 -116.966565 218 4986ft 129kts
08-Feb-20 16:21 33.175838 -117.001385 245 4991ft 129kts
08-Feb-20 16:22 33.163934 -117.046350 261 4295ft 156kts
08-Feb-20 16:23 33.157864 -117.094403 260 3952ft 126kts
08-Feb-20 16:24 33.151859 -117.132793 259 3691ft 110kts
08-Feb-20 16:25 33.146139 -117.168982 259 2501ft 108kts
08-Feb-20 16:26 33.140458 -117.204332 259 1569ft 110kts
08-Feb-20 16:27 33.134760 -117.239732 259 966ft 108kts
08-Feb-20 16:28 33.129137 -117.274535 259 335ft 83kts
08-Feb-20 16:29 33.127426 -117.280186 240 335ft 0kts
08-Feb-20 16:30 33.126653 -117.281666 90 335ft 0kts
08-Feb-20 16:31 33.126653 -117.281666 90 335ft 0kts

Navigation Log

Ident Type
Flight plan parsing failed, navigation log unavailable